createdAt,value
2022-10-26T00:01:14.185Z,10.76
2022-10-26T00:03:43.065Z,10.74
2022-10-26T00:06:22.428Z,10.75
2022-10-26T00:08:49.089Z,10.75
2022-10-26T00:11:16.365Z,10.76
2022-10-26T00:13:43.420Z,10.79
2022-10-26T00:16:12.686Z,10.80
2022-10-26T00:18:39.706Z,10.81
2022-10-26T00:21:07.597Z,10.81
2022-10-26T00:23:34.314Z,10.83
2022-10-26T00:26:01.007Z,10.80
2022-10-26T00:28:28.232Z,10.79
2022-10-26T00:30:55.266Z,10.82
2022-10-26T00:33:21.796Z,10.87
2022-10-26T00:35:53.319Z,10.93
2022-10-26T00:38:20.282Z,10.94
2022-10-26T00:40:47.544Z,10.97
2022-10-26T00:43:35.385Z,10.95
2022-10-26T00:46:05.594Z,10.92
2022-10-26T00:48:38.374Z,10.94
2022-10-26T00:51:09.760Z,10.97
2022-10-26T00:53:36.970Z,10.97
2022-10-26T00:56:04.260Z,10.96
2022-10-26T00:58:32.140Z,10.96
2022-10-26T01:00:58.708Z,10.96
2022-10-26T01:03:25.570Z,10.99
2022-10-26T01:05:56.747Z,10.97
2022-10-26T01:08:24.037Z,10.96
2022-10-26T01:10:50.905Z,10.93
2022-10-26T01:13:17.880Z,10.94
2022-10-26T01:16:07.006Z,10.95
2022-10-26T01:19:15.130Z,10.96
2022-10-26T01:21:48.985Z,10.90
2022-10-26T01:24:34.138Z,10.90
2022-10-26T01:27:25.519Z,10.90
2022-10-26T01:30:26.260Z,10.92
2022-10-26T01:33:17.667Z,10.90
2022-10-26T01:35:50.035Z,10.88
2022-10-26T01:38:22.622Z,10.87
2022-10-26T01:40:58.543Z,10.90
2022-10-26T01:43:29.847Z,10.91
2022-10-26T01:45:57.595Z,10.91
2022-10-26T01:48:26.161Z,10.93
2022-10-26T01:50:54.794Z,10.93
2022-10-26T01:53:21.405Z,10.95
2022-10-26T01:55:52.840Z,10.96
2022-10-26T01:58:34.629Z,11.02
2022-10-26T02:01:10.426Z,11.04
2022-10-26T02:03:55.136Z,11.03
2022-10-26T02:06:47.995Z,11.09
2022-10-26T02:09:17.277Z,11.14
2022-10-26T02:11:48.455Z,11.18
2022-10-26T02:14:17.644Z,11.19
2022-10-26T02:16:53.514Z,11.14
2022-10-26T02:19:38.666Z,11.10
2022-10-26T02:22:25.706Z,11.07
2022-10-26T02:24:53.950Z,11.00
2022-10-26T02:27:26.392Z,10.88
2022-10-26T02:29:55.383Z,10.75
2022-10-26T02:32:25.033Z,10.57
2022-10-26T02:34:53.419Z,10.59
2022-10-26T02:37:22.281Z,10.54
2022-10-26T02:39:51.462Z,10.50
2022-10-26T02:42:19.447Z,10.59
2022-10-26T02:44:52.274Z,10.70
2022-10-26T02:47:19.927Z,10.77
2022-10-26T02:49:47.338Z,10.81
2022-10-26T02:52:52.471Z,10.87
2022-10-26T02:55:25.512Z,10.95
2022-10-26T02:57:58.905Z,10.95
2022-10-26T03:00:25.844Z,11.01
2022-10-26T03:02:57.189Z,11.03
2022-10-26T03:05:28.679Z,11.09
2022-10-26T03:07:56.521Z,11.15
2022-10-26T03:10:23.557Z,11.19
2022-10-26T03:12:50.669Z,11.16
2022-10-26T03:15:17.810Z,11.14
2022-10-26T03:17:44.438Z,11.16
2022-10-26T03:20:11.672Z,11.17
2022-10-26T03:22:38.311Z,11.24
2022-10-26T03:25:05.616Z,11.24
2022-10-26T03:27:32.218Z,11.25
2022-10-26T03:29:58.895Z,11.14
2022-10-26T03:32:25.526Z,11.11
2022-10-26T03:34:52.177Z,11.12
2022-10-26T03:37:18.826Z,11.14
2022-10-26T03:39:45.874Z,11.17
2022-10-26T03:42:12.482Z,11.18
2022-10-26T03:44:38.990Z,11.18
2022-10-26T03:47:05.711Z,11.21
2022-10-26T03:49:32.294Z,11.23
2022-10-26T03:51:58.913Z,11.28
2022-10-26T03:54:25.640Z,11.32
2022-10-26T03:56:55.151Z,11.36
2022-10-26T03:59:22.262Z,11.34
2022-10-26T04:01:51.622Z,11.35
2022-10-26T04:04:20.946Z,11.36
2022-10-26T04:06:47.648Z,11.31
2022-10-26T04:09:14.324Z,11.29
2022-10-26T04:11:40.920Z,11.28
2022-10-26T04:14:07.459Z,11.26
2022-10-26T04:16:34.113Z,11.27
2022-10-26T04:19:01.191Z,11.25
2022-10-26T04:21:27.826Z,11.23
2022-10-26T04:23:54.375Z,11.23
2022-10-26T04:26:21.078Z,11.18
2022-10-26T04:28:47.728Z,11.18
2022-10-26T04:31:14.519Z,11.16
2022-10-26T04:33:41.096Z,11.15
2022-10-26T04:36:08.169Z,11.16
2022-10-26T04:38:34.754Z,11.15
2022-10-26T04:41:01.337Z,11.14
2022-10-26T04:43:28.038Z,11.12
2022-10-26T04:45:56.513Z,11.11
2022-10-26T04:51:09.789Z,11.10
2022-10-26T04:53:36.418Z,11.11
2022-10-26T04:56:03.025Z,11.13
2022-10-26T04:58:29.821Z,11.15
2022-10-26T05:00:56.905Z,11.12
2022-10-26T05:03:23.558Z,11.16
2022-10-26T05:05:50.211Z,11.17
2022-10-26T05:08:17.006Z,11.15
2022-10-26T05:10:47.774Z,11.18
2022-10-26T05:13:14.412Z,11.20
2022-10-26T05:15:40.960Z,11.19
2022-10-26T05:18:09.059Z,11.19
2022-10-26T05:20:36.728Z,11.12
2022-10-26T05:23:10.160Z,11.10
2022-10-26T05:25:38.205Z,11.09
2022-10-26T05:28:08.094Z,11.10
2022-10-26T05:30:35.078Z,11.06
2022-10-26T05:33:03.282Z,11.05
2022-10-26T05:35:30.344Z,11.04
2022-10-26T05:37:57.108Z,11.07
2022-10-26T05:40:24.390Z,11.09
2022-10-26T05:42:51.579Z,11.11
2022-10-26T05:45:18.524Z,11.15
2022-10-26T05:47:46.038Z,11.17
2022-10-26T05:50:13.501Z,11.27
2022-10-26T05:52:41.182Z,11.26
2022-10-26T05:55:09.192Z,11.29
2022-10-26T05:57:36.901Z,11.28
2022-10-26T06:00:24.894Z,11.26
2022-10-26T06:03:16.070Z,11.24
2022-10-26T06:05:54.401Z,11.23
2022-10-26T06:08:22.544Z,11.23
2022-10-26T06:10:49.435Z,11.24
2022-10-26T06:13:16.710Z,11.27
2022-10-26T06:16:18.940Z,11.29
2022-10-26T06:19:03.187Z,11.33
2022-10-26T06:21:50.194Z,11.35
2022-10-26T06:24:32.174Z,11.35
2022-10-26T06:27:26.611Z,11.38
2022-10-26T06:30:03.586Z,11.39
2022-10-26T06:32:30.656Z,11.39
2022-10-26T06:35:07.232Z,11.40
2022-10-26T06:37:36.478Z,11.41
2022-10-26T06:40:04.681Z,11.42
2022-10-26T06:42:32.250Z,11.42
2022-10-26T06:44:59.123Z,11.44
2022-10-26T06:47:40.723Z,11.48
2022-10-26T06:50:07.335Z,11.44
2022-10-26T06:52:40.184Z,11.46
2022-10-26T06:55:14.046Z,11.48
2022-10-26T06:57:41.200Z,11.49
2022-10-26T07:00:21.964Z,11.47
2022-10-26T07:02:50.035Z,11.49
2022-10-26T07:05:17.250Z,11.51
2022-10-26T07:07:46.157Z,11.53
2022-10-26T07:10:14.337Z,11.55
2022-10-26T07:12:41.188Z,11.60
2022-10-26T07:17:55.167Z,11.65
2022-10-26T07:20:22.521Z,11.65
2022-10-26T07:22:56.423Z,11.66
2022-10-26T07:25:23.481Z,11.66
2022-10-26T07:27:50.260Z,11.65
2022-10-26T07:30:18.089Z,11.73
2022-10-26T07:32:44.645Z,11.74
2022-10-26T07:35:11.517Z,11.75
2022-10-26T07:37:38.086Z,11.76
2022-10-26T07:40:06.809Z,11.85
2022-10-26T07:42:34.392Z,12.15
2022-10-26T07:45:01.004Z,12.04
2022-10-26T07:47:27.545Z,12.13
2022-10-26T07:49:54.113Z,12.10
2022-10-26T07:52:20.680Z,12.18
2022-10-26T07:55:55.913Z,12.32
2022-10-26T07:58:25.862Z,12.39
2022-10-26T08:00:53.885Z,13.67
2022-10-26T08:03:21.577Z,13.89
2022-10-26T08:05:51.313Z,13.80
2022-10-26T08:08:20.749Z,13.72
2022-10-26T08:10:48.032Z,13.59
2022-10-26T08:13:15.096Z,13.37
2022-10-26T08:15:41.766Z,13.51
2022-10-26T08:18:08.545Z,13.86
2022-10-26T08:20:35.294Z,13.63
2022-10-26T08:23:01.885Z,13.54
2022-10-26T08:25:28.527Z,13.45
2022-10-26T08:27:55.264Z,13.32
2022-10-26T08:30:21.896Z,13.27
2022-10-26T08:32:48.906Z,13.39
2022-10-26T08:35:16.003Z,13.55
2022-10-26T08:37:42.636Z,13.59
2022-10-26T08:40:15.722Z,13.59
2022-10-26T08:42:51.006Z,13.90
2022-10-26T08:45:35.701Z,13.85
2022-10-26T08:48:07.458Z,13.79
2022-10-26T08:50:59.703Z,13.72
2022-10-26T08:54:00.147Z,13.59
2022-10-26T08:56:32.716Z,13.50
2022-10-26T08:59:06.978Z,13.49
2022-10-26T09:01:34.480Z,13.49
2022-10-26T09:04:04.071Z,13.97
2022-10-26T09:06:41.977Z,13.97
2022-10-26T09:09:14.343Z,14.44
2022-10-26T09:11:54.297Z,14.90
2022-10-26T09:14:40.657Z,14.47
2022-10-26T09:17:41.202Z,14.54
2022-10-26T09:20:32.673Z,14.50
2022-10-26T09:23:25.251Z,15.00
2022-10-26T09:26:02.771Z,15.63
2022-10-26T09:28:34.782Z,16.74
2022-10-26T09:31:02.652Z,16.22
2022-10-26T09:33:34.668Z,16.05
2022-10-26T09:36:07.410Z,15.81
2022-10-26T09:38:42.280Z,15.69
2022-10-26T09:41:08.767Z,15.55
2022-10-26T09:43:55.601Z,15.61
2022-10-26T09:46:28.453Z,15.66
2022-10-26T09:48:59.550Z,15.71
2022-10-26T09:51:27.312Z,15.58
2022-10-26T09:53:57.499Z,15.27
2022-10-26T09:56:26.924Z,15.48
2022-10-26T09:59:05.365Z,15.57
2022-10-26T10:01:36.915Z,15.81
2022-10-26T10:04:26.053Z,15.84
2022-10-26T10:07:15.764Z,15.67
2022-10-26T10:09:42.461Z,15.99
2022-10-26T10:12:20.435Z,15.60
2022-10-26T10:14:58.587Z,16.03
2022-10-26T10:17:25.770Z,16.19
2022-10-26T10:19:52.807Z,16.20
2022-10-26T10:22:24.703Z,16.00
2022-10-26T10:25:02.142Z,16.20
2022-10-26T10:27:30.649Z,16.75
2022-10-26T10:30:03.048Z,16.88
2022-10-26T10:32:35.738Z,18.03
2022-10-26T10:35:24.123Z,17.98
2022-10-26T10:37:52.279Z,18.40
2022-10-26T10:40:24.757Z,18.72
2022-10-26T10:42:53.617Z,18.65
2022-10-26T10:45:29.241Z,18.85
2022-10-26T10:48:02.493Z,19.39
2022-10-26T10:50:30.145Z,20.44
2022-10-26T10:53:35.207Z,20.14
2022-10-26T10:56:20.647Z,19.20
2022-10-26T10:59:08.430Z,20.18
2022-10-26T11:01:54.327Z,20.87
2022-10-26T11:04:40.154Z,20.34
2022-10-26T11:07:10.073Z,21.09
2022-10-26T11:09:39.490Z,20.95
2022-10-26T11:12:12.415Z,20.33
2022-10-26T11:14:45.251Z,20.18
2022-10-26T11:17:21.389Z,20.90
2022-10-26T11:19:55.723Z,20.45
2022-10-26T11:22:41.389Z,20.33
2022-10-26T11:25:17.079Z,20.62
2022-10-26T11:27:53.006Z,20.88
2022-10-26T11:30:27.660Z,20.56
2022-10-26T11:33:03.344Z,20.79
2022-10-26T11:35:32.828Z,20.32
2022-10-26T11:38:20.753Z,20.52
2022-10-26T11:41:02.021Z,20.46
2022-10-26T11:43:33.448Z,20.43
2022-10-26T11:46:09.429Z,20.37
2022-10-26T11:48:44.496Z,20.81
2022-10-26T11:51:24.344Z,20.66
2022-10-26T11:53:51.583Z,20.78
2022-10-26T11:56:31.880Z,20.91
2022-10-26T11:58:59.749Z,21.21
2022-10-26T12:01:29.262Z,21.19
2022-10-26T12:03:58.334Z,21.29
2022-10-26T12:06:31.410Z,20.87
2022-10-26T12:09:16.073Z,21.13
2022-10-26T12:12:09.555Z,20.65
2022-10-26T12:14:46.957Z,21.41
2022-10-26T12:17:21.580Z,21.43
2022-10-26T12:19:53.269Z,21.55
2022-10-26T12:22:23.466Z,21.39
2022-10-26T12:25:15.751Z,21.04
2022-10-26T12:27:42.428Z,21.22
2022-10-26T12:30:11.723Z,21.13
2022-10-26T12:32:40.331Z,21.40
2022-10-26T12:35:30.795Z,21.39
2022-10-26T12:37:58.474Z,21.56
2022-10-26T12:40:31.406Z,21.36
2022-10-26T12:43:18.623Z,21.74
2022-10-26T12:46:13.809Z,21.57
2022-10-26T12:48:42.591Z,21.82
2022-10-26T12:51:39.907Z,21.48
2022-10-26T12:54:28.375Z,21.32
2022-10-26T12:57:18.781Z,21.58
2022-10-26T12:59:53.837Z,21.58
2022-10-26T13:02:56.962Z,21.39
2022-10-26T13:05:42.634Z,21.30
2022-10-26T13:08:11.038Z,21.63
2022-10-26T13:10:41.147Z,21.27
2022-10-26T13:13:08.438Z,21.24
2022-10-26T13:15:51.805Z,21.61
2022-10-26T13:18:20.343Z,21.55
2022-10-26T13:21:08.535Z,21.35
2022-10-26T13:23:40.870Z,21.73
2022-10-26T13:26:16.484Z,21.61
2022-10-26T13:28:46.555Z,21.45
2022-10-26T13:31:31.584Z,21.45
2022-10-26T13:33:58.166Z,21.44
2022-10-26T13:36:36.717Z,21.30
2022-10-26T13:39:10.022Z,21.30
2022-10-26T13:41:40.123Z,21.50
2022-10-26T13:44:16.662Z,21.15
2022-10-26T13:46:46.706Z,21.13
2022-10-26T13:49:24.613Z,20.96
2022-10-26T13:51:53.134Z,21.64
2022-10-26T13:54:27.045Z,21.37
2022-10-26T13:57:08.259Z,21.34
2022-10-26T13:59:39.508Z,21.59
2022-10-26T14:02:27.559Z,21.31
2022-10-26T14:05:01.004Z,21.14
2022-10-26T14:07:43.769Z,20.95
2022-10-26T14:10:32.965Z,20.85
2022-10-26T14:13:00.773Z,20.99
2022-10-26T14:15:30.969Z,21.05
2022-10-26T14:17:59.813Z,21.09
2022-10-26T14:20:28.563Z,20.95
2022-10-26T14:22:55.120Z,20.90
2022-10-26T14:25:36.208Z,21.17
2022-10-26T14:28:31.769Z,20.90
2022-10-26T14:31:15.108Z,20.84
2022-10-26T14:33:44.585Z,20.61
2022-10-26T14:36:11.849Z,20.76
2022-10-26T14:38:51.691Z,20.82
2022-10-26T14:41:18.925Z,20.88
2022-10-26T14:43:46.110Z,20.90
2022-10-26T14:46:17.647Z,20.67
2022-10-26T14:48:56.569Z,20.69
2022-10-26T14:51:34.261Z,20.52
2022-10-26T14:54:02.648Z,20.61
2022-10-26T14:56:35.056Z,20.58
2022-10-26T14:59:12.194Z,20.25
2022-10-26T15:01:49.806Z,20.30
2022-10-26T15:04:40.264Z,20.48
2022-10-26T15:07:12.619Z,20.22
2022-10-26T15:09:46.650Z,20.43
2022-10-26T15:12:31.479Z,20.15
2022-10-26T15:15:07.380Z,20.10
2022-10-26T15:17:40.426Z,19.91
2022-10-26T15:20:14.327Z,19.91
2022-10-26T15:22:42.121Z,19.81
2022-10-26T15:25:20.604Z,19.86
2022-10-26T15:27:48.320Z,19.74
2022-10-26T15:30:28.043Z,19.60
2022-10-26T15:32:55.552Z,19.59
2022-10-26T15:35:30.471Z,19.50
2022-10-26T15:37:58.287Z,19.41
2022-10-26T15:43:12.914Z,19.23
2022-10-26T15:45:52.157Z,19.12
2022-10-26T15:48:25.684Z,18.97
2022-10-26T15:50:52.478Z,19.00
2022-10-26T15:53:27.488Z,18.79
2022-10-26T15:55:56.500Z,18.84
2022-10-26T15:58:23.572Z,18.79
2022-10-26T16:00:50.227Z,18.43
2022-10-26T16:03:24.934Z,18.52
2022-10-26T16:06:02.205Z,18.43
2022-10-26T16:08:31.412Z,18.41
2022-10-26T16:10:58.119Z,18.29
2022-10-26T16:13:24.676Z,18.33
2022-10-26T16:15:51.223Z,18.18
2022-10-26T16:18:17.810Z,18.14
2022-10-26T16:20:47.403Z,18.10
2022-10-26T16:23:14.007Z,18.11
2022-10-26T16:25:43.636Z,18.06
2022-10-26T16:28:16.336Z,17.84
2022-10-26T16:30:43.771Z,17.90
2022-10-26T16:33:10.389Z,17.82
2022-10-26T16:35:37.126Z,17.77
2022-10-26T16:38:03.745Z,17.80
2022-10-26T16:40:31.082Z,17.72
2022-10-26T16:42:57.691Z,17.59
2022-10-26T16:45:24.327Z,17.39
2022-10-26T16:47:51.215Z,17.31
2022-10-26T16:50:21.204Z,17.37
2022-10-26T16:52:47.852Z,17.32
2022-10-26T16:55:14.523Z,17.32
2022-10-26T16:57:41.550Z,17.31
2022-10-26T17:00:08.532Z,17.14
2022-10-26T17:02:35.375Z,17.10
2022-10-26T17:05:05.932Z,16.84
2022-10-26T17:07:34.320Z,16.68
2022-10-26T17:10:01.048Z,16.55
2022-10-26T17:15:17.282Z,16.45
2022-10-26T17:17:46.466Z,16.48
2022-10-26T17:20:13.137Z,16.42
2022-10-26T17:22:39.698Z,16.34
2022-10-26T17:25:06.716Z,16.35
2022-10-26T17:27:33.337Z,16.30
2022-10-26T17:30:00.006Z,16.29
2022-10-26T17:32:26.591Z,16.43
2022-10-26T17:34:53.136Z,16.41
2022-10-26T17:37:19.868Z,16.38
2022-10-26T17:39:46.497Z,16.26
2022-10-26T17:42:13.137Z,16.20
2022-10-26T17:44:39.680Z,16.17
2022-10-26T17:47:06.239Z,16.12
2022-10-26T17:49:35.995Z,16.13
2022-10-26T17:52:03.939Z,15.96
2022-10-26T17:54:30.567Z,15.89
2022-10-26T17:56:57.146Z,15.86
2022-10-26T17:59:23.718Z,15.91
2022-10-26T18:01:50.338Z,15.88
2022-10-26T18:04:17.318Z,15.83
2022-10-26T18:06:43.861Z,15.66
2022-10-26T18:09:10.536Z,15.70
2022-10-26T18:11:37.098Z,15.69
2022-10-26T18:14:04.222Z,15.71
2022-10-26T18:16:31.265Z,15.80
2022-10-26T18:19:01.631Z,15.87
2022-10-26T18:21:30.555Z,15.87
2022-10-26T18:23:57.228Z,15.91
2022-10-26T18:26:26.583Z,15.89
2022-10-26T18:28:55.044Z,15.88
2022-10-26T18:31:23.499Z,15.81
2022-10-26T18:34:01.052Z,15.78
2022-10-26T18:36:28.610Z,15.78
2022-10-26T18:38:55.678Z,15.81
2022-10-26T18:41:23.780Z,15.74
2022-10-26T18:43:52.622Z,15.93
2022-10-26T18:46:24.462Z,16.08
2022-10-26T18:48:52.070Z,16.22
2022-10-26T18:51:28.726Z,16.22
2022-10-26T18:53:56.686Z,16.34
2022-10-26T18:56:24.999Z,16.39
2022-10-26T18:58:54.046Z,16.59
2022-10-26T19:01:29.071Z,16.70
2022-10-26T19:03:58.493Z,16.67
2022-10-26T19:06:26.353Z,16.68
2022-10-26T19:08:53.497Z,16.77
2022-10-26T19:11:22.213Z,16.58
2022-10-26T19:13:50.331Z,16.58
2022-10-26T19:16:40.367Z,16.66
2022-10-26T19:19:10.596Z,16.52
2022-10-26T19:21:37.452Z,16.10
2022-10-26T19:24:04.214Z,15.96
2022-10-26T19:26:36.922Z,15.76
2022-10-26T19:29:06.677Z,15.19
2022-10-26T19:31:34.431Z,14.85
2022-10-26T19:34:01.938Z,14.69
2022-10-26T19:36:29.193Z,14.52
2022-10-26T19:38:56.308Z,14.42
2022-10-26T19:41:24.021Z,14.37
2022-10-26T19:43:51.019Z,14.33
2022-10-26T19:46:21.241Z,14.27
2022-10-26T19:48:49.793Z,14.28
2022-10-26T19:51:16.616Z,14.27
2022-10-26T19:53:43.348Z,14.21
2022-10-26T19:56:13.377Z,14.19
2022-10-26T19:58:44.595Z,14.13
2022-10-26T20:01:13.204Z,14.04
2022-10-26T20:03:39.841Z,14.06
2022-10-26T20:06:12.773Z,14.08
2022-10-26T20:08:44.683Z,14.06
2022-10-26T20:11:14.825Z,14.06
2022-10-26T20:13:43.355Z,14.16
2022-10-26T20:16:10.573Z,14.21
2022-10-26T20:18:37.174Z,14.17
2022-10-26T20:21:11.438Z,14.20
2022-10-26T20:23:37.982Z,14.22
2022-10-26T20:28:51.523Z,14.24
2022-10-26T20:31:18.464Z,14.26
2022-10-26T20:33:44.997Z,14.37
2022-10-26T20:36:11.538Z,14.25
2022-10-26T20:38:39.435Z,14.37
2022-10-26T20:41:09.370Z,14.31
2022-10-26T20:43:39.338Z,14.14
2022-10-26T20:46:10.367Z,14.07
2022-10-26T20:48:38.780Z,13.99
2022-10-26T20:51:39.939Z,13.97
2022-10-26T20:54:33.239Z,13.97
2022-10-26T20:57:02.126Z,13.80
2022-10-26T20:59:39.670Z,13.79
2022-10-26T21:02:09.863Z,13.77
2022-10-26T21:04:36.618Z,13.88
2022-10-26T21:07:03.180Z,13.75
2022-10-26T21:09:32.935Z,13.68
2022-10-26T21:12:03.090Z,13.60
2022-10-26T21:14:29.684Z,13.53
2022-10-26T21:16:56.228Z,13.45
2022-10-26T21:19:22.816Z,13.39
2022-10-26T21:21:49.384Z,13.61
2022-10-26T21:24:15.946Z,13.70
2022-10-26T21:26:42.473Z,13.82
2022-10-26T21:29:10.364Z,13.84
2022-10-26T21:31:36.896Z,13.89
2022-10-26T21:34:04.646Z,13.84
2022-10-26T21:36:31.361Z,13.91
2022-10-26T21:38:57.919Z,13.93
2022-10-26T21:44:24.671Z,13.90
2022-10-26T21:46:57.819Z,13.94
2022-10-26T21:49:24.351Z,13.86
2022-10-26T21:51:50.896Z,13.82
2022-10-26T21:54:17.513Z,13.79
2022-10-26T21:56:44.097Z,13.82
2022-10-26T21:59:10.629Z,13.84
2022-10-26T22:01:37.354Z,13.76
2022-10-26T22:04:04.338Z,13.92
2022-10-26T22:06:30.967Z,13.87
2022-10-26T22:08:57.505Z,13.91
2022-10-26T22:11:25.085Z,14.05
2022-10-26T22:13:52.695Z,14.02
2022-10-26T22:16:24.310Z,14.09
2022-10-26T22:18:54.074Z,13.98
2022-10-26T22:21:22.355Z,13.89
2022-10-26T22:23:49.009Z,13.86
2022-10-26T22:26:25.265Z,13.85
2022-10-26T22:28:54.153Z,13.89
2022-10-26T22:31:23.559Z,13.98
2022-10-26T22:34:03.340Z,14.08
2022-10-26T22:36:33.183Z,14.01
2022-10-26T22:39:00.798Z,13.91
2022-10-26T22:41:27.454Z,13.11
2022-10-26T22:43:54.059Z,12.88
2022-10-26T22:46:25.871Z,12.80
2022-10-26T22:48:54.695Z,12.73
2022-10-26T22:51:23.084Z,12.66
2022-10-26T22:53:54.434Z,12.55
2022-10-26T22:56:21.982Z,12.54
2022-10-26T22:58:48.869Z,12.47
2022-10-26T23:01:17.651Z,12.49
2022-10-26T23:03:44.547Z,12.37
2022-10-26T23:06:16.258Z,12.35
2022-10-26T23:08:43.399Z,12.32
2022-10-26T23:11:12.762Z,12.35
2022-10-26T23:13:39.395Z,12.43
2022-10-26T23:16:10.917Z,12.45
2022-10-26T23:18:37.861Z,12.37
2022-10-26T23:21:06.244Z,12.30
2022-10-26T23:23:32.924Z,12.20
2022-10-26T23:26:05.898Z,12.16
2022-10-26T23:28:33.338Z,12.09
2022-10-26T23:30:59.907Z,12.07
2022-10-26T23:33:26.627Z,12.13
2022-10-26T23:35:53.536Z,12.16
2022-10-26T23:38:20.477Z,12.36
2022-10-26T23:40:58.066Z,12.31
2022-10-26T23:43:25.947Z,12.07
2022-10-26T23:45:53.290Z,12.18
2022-10-26T23:48:20.206Z,12.19
2022-10-26T23:50:48.150Z,12.29
2022-10-26T23:53:17.102Z,12.11
2022-10-26T23:55:47.550Z,11.99
2022-10-26T23:58:15.023Z,12.18
